Macheng, China
Current Conditions -  °F | °C
As of 1:00 AM on Monday 22 Dec 2014 (Local Time) from ZHHH Reporting Station
Clear Clear  
Wind Chill: 32°   Ceiling: Unl
Heat Index: 36°   Visibility: 6mi
Dew Point: 21°   Wind: 4mph
Humidity: 56%   Direction: 230°SW
Pressure: 30.48"   Gusts: NA
Location:  31.18°N, 115.03°E
Report Text: ZHHH 211700Z 23002MPS 190V260 CAVOK 02/M06 Q1032 NOSIG
Loading
Personal Weather Stations






























Interactive Weather Map New forecast layout! Learn more

10-Day Weather Forecast

Advertisements
Track Severe Weather on mobile